sensor_id;sensor_type;location;lat;lon;timestamp;pressure;altitude;pressure_sealevel;temperature;humidity
73870;BME280;64924;42.140;24.762;2023-05-09T00:00:13;100023.91;;;13.30;73.79
73870;BME280;64924;42.140;24.762;2023-05-09T00:02:39;100034.19;;;13.28;73.49
73870;BME280;64924;42.140;24.762;2023-05-09T00:05:05;100017.81;;;13.28;74.05
73870;BME280;64924;42.140;24.762;2023-05-09T00:07:32;100030.63;;;13.27;74.21
73870;BME280;64924;42.140;24.762;2023-05-09T00:09:59;100028.31;;;13.37;73.34
73870;BME280;64924;42.140;24.762;2023-05-09T00:12:28;100015.94;;;13.42;73.84
73870;BME280;64924;42.140;24.762;2023-05-09T00:14:53;100027.91;;;13.27;74.32
73870;BME280;64924;42.140;24.762;2023-05-09T00:17:21;100019.09;;;13.32;74.37
73870;BME280;64924;42.140;24.762;2023-05-09T00:19:48;100015.53;;;13.31;74.20
73870;BME280;64924;42.140;24.762;2023-05-09T00:22:15;100027.28;;;13.38;74.00
73870;BME280;64924;42.140;24.762;2023-05-09T00:24:41;100027.28;;;13.38;74.19
73870;BME280;64924;42.140;24.762;2023-05-09T00:27:06;100029.81;;;13.47;74.21
73870;BME280;64924;42.140;24.762;2023-05-09T00:29:32;100020.16;;;13.44;74.50
73870;BME280;64924;42.140;24.762;2023-05-09T00:31:57;99980.06;;;13.31;74.11
73870;BME280;64924;42.140;24.762;2023-05-09T00:34:23;99976.81;;;13.15;74.91
73870;BME280;64924;42.140;24.762;2023-05-09T00:36:48;100022.25;;;13.42;74.39
73870;BME280;64924;42.140;24.762;2023-05-09T00:39:14;100025.00;;;13.49;74.20
73870;BME280;64924;42.140;24.762;2023-05-09T00:41:40;100018.34;;;13.71;73.61
73870;BME280;64924;42.140;24.762;2023-05-09T00:44:06;100028.78;;;13.48;73.69
73870;BME280;64924;42.140;24.762;2023-05-09T00:46:32;99996.91;;;13.07;74.80
73870;BME280;64924;42.140;24.762;2023-05-09T00:48:57;100046.13;;;13.20;74.71
73870;BME280;64924;42.140;24.762;2023-05-09T00:51:24;100037.19;;;12.98;75.47
73870;BME280;64924;42.140;24.762;2023-05-09T00:53:50;100048.94;;;13.05;75.89
73870;BME280;64924;42.140;24.762;2023-05-09T00:56:15;100037.03;;;13.13;74.87
73870;BME280;64924;42.140;24.762;2023-05-09T00:58:41;100044.44;;;13.19;74.66
73870;BME280;64924;42.140;24.762;2023-05-09T01:01:07;100044.44;;;13.19;74.35
73870;BME280;64924;42.140;24.762;2023-05-09T01:03:32;100039.56;;;13.15;74.82
73870;BME280;64924;42.140;24.762;2023-05-09T01:08:43;100049.50;;;13.22;74.32
73870;BME280;64924;42.140;24.762;2023-05-09T01:14:13;100053.25;;;13.21;74.35
73870;BME280;64924;42.140;24.762;2023-05-09T01:16:49;100057.88;;;13.21;74.38
73870;BME280;64924;42.140;24.762;2023-05-09T01:22:12;100062.06;;;13.17;73.93
73870;BME280;64924;42.140;24.762;2023-05-09T01:27:22;100035.50;;;13.04;74.35
73870;BME280;64924;42.140;24.762;2023-05-09T01:30:02;100057.16;;;13.12;73.78
73870;BME280;64924;42.140;24.762;2023-05-09T01:32:29;100040.97;;;12.97;74.20
73870;BME280;64924;42.140;24.762;2023-05-09T01:34:59;100053.66;;;13.18;73.92
73870;BME280;64924;42.140;24.762;2023-05-09T01:37:30;100052.34;;;13.14;73.60
73870;BME280;64924;42.140;24.762;2023-05-09T01:40:06;100054.94;;;13.22;73.97
73870;BME280;64924;42.140;24.762;2023-05-09T01:42:42;100021.81;;;12.91;74.01
73870;BME280;64924;42.140;24.762;2023-05-09T01:45:09;100060.69;;;13.06;73.86
73870;BME280;64924;42.140;24.762;2023-05-09T01:47:36;100054.16;;;12.94;74.56
73870;BME280;64924;42.140;24.762;2023-05-09T01:50:04;100025.59;;;12.90;74.07
73870;BME280;64924;42.140;24.762;2023-05-09T01:52:31;100052.72;;;13.04;73.96
73870;BME280;64924;42.140;24.762;2023-05-09T01:54:58;100024.63;;;12.69;74.01
73870;BME280;64924;42.140;24.762;2023-05-09T01:57:26;100050.06;;;12.77;74.70
73870;BME280;64924;42.140;24.762;2023-05-09T01:59:54;100045.13;;;12.93;74.09
73870;BME280;64924;42.140;24.762;2023-05-09T02:02:20;100054.00;;;13.09;73.66
73870;BME280;64924;42.140;24.762;2023-05-09T02:04:47;100053.78;;;13.10;73.23
73870;BME280;64924;42.140;24.762;2023-05-09T02:07:13;100069.91;;;12.98;73.95
73870;BME280;64924;42.140;24.762;2023-05-09T02:09:39;100070.72;;;12.92;74.27
73870;BME280;64924;42.140;24.762;2023-05-09T02:12:05;100069.38;;;12.82;75.02
73870;BME280;64924;42.140;24.762;2023-05-09T02:14:31;100068.19;;;12.91;74.46
73870;BME280;64924;42.140;24.762;2023-05-09T02:16:59;100069.69;;;13.00;73.32
73870;BME280;64924;42.140;24.762;2023-05-09T02:19:32;100066.09;;;12.93;73.95
73870;BME280;64924;42.140;24.762;2023-05-09T02:21:58;100057.72;;;12.94;73.59
73870;BME280;64924;42.140;24.762;2023-05-09T02:24:23;100062.34;;;12.94;73.88
73870;BME280;64924;42.140;24.762;2023-05-09T02:26:50;100066.53;;;12.96;73.88
73870;BME280;64924;42.140;24.762;2023-05-09T02:29:16;100076.38;;;12.91;73.89
73870;BME280;64924;42.140;24.762;2023-05-09T02:31:45;100085.84;;;12.95;73.97
73870;BME280;64924;42.140;24.762;2023-05-09T02:34:12;100049.25;;;12.83;73.80
73870;BME280;64924;42.140;24.762;2023-05-09T02:36:39;100074.31;;;12.99;73.61
73870;BME280;64924;42.140;24.762;2023-05-09T02:39:05;100082.50;;;12.99;73.76
73870;BME280;64924;42.140;24.762;2023-05-09T02:41:31;100080.28;;;12.82;74.77
73870;BME280;64924;42.140;24.762;2023-05-09T02:43:56;100076.47;;;12.76;74.58
73870;BME280;64924;42.140;24.762;2023-05-09T02:46:22;100071.22;;;12.75;74.50
73870;BME280;64924;42.140;24.762;2023-05-09T02:48:47;100087.81;;;12.80;74.18
73870;BME280;64924;42.140;24.762;2023-05-09T02:51:13;100048.69;;;12.59;74.46
73870;BME280;64924;42.140;24.762;2023-05-09T02:53:39;100084.47;;;12.78;74.04
73870;BME280;64924;42.140;24.762;2023-05-09T02:56:04;100086.19;;;12.85;74.43
73870;BME280;64924;42.140;24.762;2023-05-09T02:58:30;100096.06;;;12.86;74.06
73870;BME280;64924;42.140;24.762;2023-05-09T03:00:55;100100.13;;;12.97;73.48
73870;BME280;64924;42.140;24.762;2023-05-09T03:03:21;100065.13;;;12.72;73.86
73870;BME280;64924;42.140;24.762;2023-05-09T03:05:47;100084.94;;;12.88;74.06
73870;BME280;64924;42.140;24.762;2023-05-09T03:08:12;100032.94;;;12.55;73.96
73870;BME280;64924;42.140;24.762;2023-05-09T03:10:38;100102.09;;;12.82;74.29
73870;BME280;64924;42.140;24.762;2023-05-09T03:13:03;100115.88;;;12.73;74.94
73870;BME280;64924;42.140;24.762;2023-05-09T03:15:29;100101.25;;;12.81;74.29
73870;BME280;64924;42.140;24.762;2023-05-09T03:17:54;100107.41;;;12.90;74.47
73870;BME280;64924;42.140;24.762;2023-05-09T03:20:20;100070.72;;;12.64;74.31
73870;BME280;64924;42.140;24.762;2023-05-09T03:22:45;100110.47;;;12.80;74.47
73870;BME280;64924;42.140;24.762;2023-05-09T03:25:13;100119.50;;;12.81;74.85
73870;BME280;64924;42.140;24.762;2023-05-09T03:27:38;100073.66;;;12.63;74.62
73870;BME280;64924;42.140;24.762;2023-05-09T03:30:04;100118.97;;;12.92;74.64
73870;BME280;64924;42.140;24.762;2023-05-09T03:32:31;100123.53;;;12.85;74.16
73870;BME280;64924;42.140;24.762;2023-05-09T03:34:56;100115.88;;;12.73;75.12
73870;BME280;64924;42.140;24.762;2023-05-09T03:37:22;100122.03;;;12.82;75.04
73870;BME280;64924;42.140;24.762;2023-05-09T03:39:47;100124.38;;;12.85;74.86
73870;BME280;64924;42.140;24.762;2023-05-09T03:42:13;100130.72;;;12.92;73.62
73870;BME280;64924;42.140;24.762;2023-05-09T03:44:38;100092.53;;;12.64;74.53
73870;BME280;64924;42.140;24.762;2023-05-09T03:47:04;100135.72;;;12.89;74.37
73870;BME280;64924;42.140;24.762;2023-05-09T03:49:29;100131.72;;;12.85;74.62
73870;BME280;64924;42.140;24.762;2023-05-09T03:51:55;100136.38;;;12.91;74.75
73870;BME280;64924;42.140;24.762;2023-05-09T03:54:20;100136.38;;;12.91;73.89
73870;BME280;64924;42.140;24.762;2023-05-09T03:56:45;100135.72;;;12.89;74.22
73870;BME280;64924;42.140;24.762;2023-05-09T03:59:11;100146.03;;;12.93;74.47
73870;BME280;64924;42.140;24.762;2023-05-09T04:01:37;100143.91;;;12.89;74.76
73870;BME280;64924;42.140;24.762;2023-05-09T04:04:04;100144.69;;;12.83;74.62
73870;BME280;64924;42.140;24.762;2023-05-09T04:06:32;100144.75;;;12.89;74.79
73870;BME280;64924;42.140;24.762;2023-05-09T04:08:57;100130.66;;;12.86;74.32
73870;BME280;64924;42.140;24.762;2023-05-09T04:11:23;100150.41;;;12.88;74.48
73870;BME280;64924;42.140;24.762;2023-05-09T04:13:49;100149.69;;;12.79;75.01
73870;BME280;64924;42.140;24.762;2023-05-09T04:16:14;100133.34;;;12.79;74.60
73870;BME280;64924;42.140;24.762;2023-05-09T04:18:39;100140.69;;;12.79;75.62
73870;BME280;64924;42.140;24.762;2023-05-09T04:21:06;100124.47;;;12.70;74.44
73870;BME280;64924;42.140;24.762;2023-05-09T04:23:32;100136.50;;;12.83;74.47
73870;BME280;64924;42.140;24.762;2023-05-09T04:25:57;100147.47;;;12.89;74.74
73870;BME280;64924;42.140;24.762;2023-05-09T04:28:23;100149.75;;;12.86;74.60
73870;BME280;64924;42.140;24.762;2023-05-09T04:30:48;100146.22;;;12.92;75.13
73870;BME280;64924;42.140;24.762;2023-05-09T04:33:14;100129.69;;;12.93;74.61
73870;BME280;64924;42.140;24.762;2023-05-09T04:35:39;100145.50;;;13.11;74.89
73870;BME280;64924;42.140;24.762;2023-05-09T04:38:05;100136.88;;;13.07;73.74
73870;BME280;64924;42.140;24.762;2023-05-09T04:40:31;100136.22;;;12.99;73.84
73870;BME280;64924;42.140;24.762;2023-05-09T04:42:57;100154.69;;;13.03;74.00
73870;BME280;64924;42.140;24.762;2023-05-09T04:45:23;100157.78;;;12.94;73.90
73870;BME280;64924;42.140;24.762;2023-05-09T04:47:48;100119.97;;;12.56;73.92
73870;BME280;64924;42.140;24.762;2023-05-09T04:50:13;100145.78;;;12.88;73.77
73870;BME280;64924;42.140;24.762;2023-05-09T04:52:40;100148.00;;;12.78;74.46
73870;BME280;64924;42.140;24.762;2023-05-09T04:55:06;100152.03;;;12.82;74.28
73870;BME280;64924;42.140;24.762;2023-05-09T04:57:32;100146.81;;;12.87;73.79
73870;BME280;64924;42.140;24.762;2023-05-09T04:59:58;100132.78;;;12.90;73.25
73870;BME280;64924;42.140;24.762;2023-05-09T05:02:23;100152.16;;;13.02;73.09
73870;BME280;64924;42.140;24.762;2023-05-09T05:04:50;100151.75;;;12.98;73.11
73870;BME280;64924;42.140;24.762;2023-05-09T05:07:15;100165.88;;;12.81;73.67
73870;BME280;64924;42.140;24.762;2023-05-09T05:09:41;100152.38;;;12.72;73.66
73870;BME280;64924;42.140;24.762;2023-05-09T05:12:06;100172.75;;;12.77;73.93
73870;BME280;64924;42.140;24.762;2023-05-09T05:14:33;100141.22;;;12.67;73.00
73870;BME280;64924;42.140;24.762;2023-05-09T05:16:58;100133.19;;;12.59;72.80
73870;BME280;64924;42.140;24.762;2023-05-09T05:19:24;100162.88;;;12.76;73.31
73870;BME280;64924;42.140;24.762;2023-05-09T05:21:49;100172.59;;;12.85;72.73
73870;BME280;64924;42.140;24.762;2023-05-09T05:24:15;100170.13;;;12.90;72.77
73870;BME280;64924;42.140;24.762;2023-05-09T05:26:40;100163.19;;;12.87;72.97
73870;BME280;64924;42.140;24.762;2023-05-09T05:29:06;100131.59;;;12.71;72.78
73870;BME280;64924;42.140;24.762;2023-05-09T05:31:32;100171.56;;;12.86;72.98
73870;BME280;64924;42.140;24.762;2023-05-09T05:33:57;100174.63;;;12.76;72.31
73870;BME280;64924;42.140;24.762;2023-05-09T05:36:22;100172.44;;;12.65;73.22
73870;BME280;64924;42.140;24.762;2023-05-09T05:38:48;100178.59;;;12.73;73.13
73870;BME280;64924;42.140;24.762;2023-05-09T05:41:13;100142.16;;;12.53;72.72
73870;BME280;64924;42.140;24.762;2023-05-09T05:43:39;100180.41;;;12.66;73.22
73870;BME280;64924;42.140;24.762;2023-05-09T05:46:05;100183.41;;;12.71;73.34
73870;BME280;64924;42.140;24.762;2023-05-09T05:48:30;100184.69;;;12.76;73.23
73870;BME280;64924;42.140;24.762;2023-05-09T05:50:56;100180.53;;;12.80;73.33
73870;BME280;64924;42.140;24.762;2023-05-09T05:53:21;100146.66;;;12.67;73.07
73870;BME280;64924;42.140;24.762;2023-05-09T05:55:47;100180.66;;;12.93;72.64
73870;BME280;64924;42.140;24.762;2023-05-09T05:58:13;100172.66;;;12.91;72.76
73870;BME280;64924;42.140;24.762;2023-05-09T06:00:39;100187.59;;;12.95;73.09
73870;BME280;64924;42.140;24.762;2023-05-09T06:03:04;100182.59;;;13.05;72.42
73870;BME280;64924;42.140;24.762;2023-05-09T06:05:30;100141.66;;;12.71;72.71
73870;BME280;64924;42.140;24.762;2023-05-09T06:07:55;100177.34;;;13.04;72.93
73870;BME280;64924;42.140;24.762;2023-05-09T06:10:21;100174.44;;;13.05;73.21
73870;BME280;64924;42.140;24.762;2023-05-09T06:12:46;100176.75;;;13.09;72.14
73870;BME280;64924;42.140;24.762;2023-05-09T06:15:12;100169.78;;;12.99;72.90
73870;BME280;64924;42.140;24.762;2023-05-09T06:17:37;100181.44;;;12.87;73.56
73870;BME280;64924;42.140;24.762;2023-05-09T06:20:03;100189.88;;;12.92;72.79
73870;BME280;64924;42.140;24.762;2023-05-09T06:22:29;100189.38;;;12.82;73.13
73870;BME280;64924;42.140;24.762;2023-05-09T06:24:54;100174.09;;;12.87;72.34
73870;BME280;64924;42.140;24.762;2023-05-09T06:27:20;100185.91;;;12.94;72.43
73870;BME280;64924;42.140;24.762;2023-05-09T06:29:45;100177.81;;;13.07;71.41
73870;BME280;64924;42.140;24.762;2023-05-09T06:32:11;100187.03;;;13.06;71.85
73870;BME280;64924;42.140;24.762;2023-05-09T06:34:36;100188.31;;;13.11;71.75
73870;BME280;64924;42.140;24.762;2023-05-09T06:37:02;100191.97;;;13.18;71.45
73870;BME280;64924;42.140;24.762;2023-05-09T06:39:27;100185.66;;;13.17;71.62
73870;BME280;64924;42.140;24.762;2023-05-09T06:41:53;100195.41;;;13.05;71.29
73870;BME280;64924;42.140;24.762;2023-05-09T06:44:18;100186.09;;;12.93;71.94
73870;BME280;64924;42.140;24.762;2023-05-09T06:46:44;100182.00;;;13.10;71.75
73870;BME280;64924;42.140;24.762;2023-05-09T06:49:09;100176.50;;;12.97;71.88
73870;BME280;64924;42.140;24.762;2023-05-09T06:51:35;100167.34;;;13.11;71.42
73870;BME280;64924;42.140;24.762;2023-05-09T06:54:00;100188.19;;;13.19;71.36
73870;BME280;64924;42.140;24.762;2023-05-09T06:56:26;100146.47;;;12.97;70.94
73870;BME280;64924;42.140;24.762;2023-05-09T06:58:51;100187.22;;;13.05;71.33
73870;BME280;64924;42.140;24.762;2023-05-09T07:01:17;100185.72;;;12.96;71.87
73870;BME280;64924;42.140;24.762;2023-05-09T07:03:43;100197.03;;;13.21;71.49
73870;BME280;64924;42.140;24.762;2023-05-09T07:06:08;100201.75;;;13.12;71.86
73870;BME280;64924;42.140;24.762;2023-05-09T07:08:34;100191.31;;;13.16;71.94
73870;BME280;64924;42.140;24.762;2023-05-09T07:11:00;100190.13;;;13.25;72.18
73870;BME280;64924;42.140;24.762;2023-05-09T07:13:25;100197.72;;;13.29;71.41
73870;BME280;64924;42.140;24.762;2023-05-09T07:15:51;100195.44;;;13.33;70.50
73870;BME280;64924;42.140;24.762;2023-05-09T07:18:16;100197.78;;;13.36;70.72
73870;BME280;64924;42.140;24.762;2023-05-09T07:20:41;100203.81;;;13.31;70.63
73870;BME280;64924;42.140;24.762;2023-05-09T07:23:07;100211.63;;;13.34;70.31
73870;BME280;64924;42.140;24.762;2023-05-09T07:25:33;100203.19;;;13.29;70.13
73870;BME280;64924;42.140;24.762;2023-05-09T07:27:58;100207.53;;;13.24;70.63
73870;BME280;64924;42.140;24.762;2023-05-09T07:30:24;100202.59;;;13.13;70.75
73870;BME280;64924;42.140;24.762;2023-05-09T07:32:49;100170.72;;;13.13;70.63
73870;BME280;64924;42.140;24.762;2023-05-09T07:35:16;100196.88;;;13.29;70.56
73870;BME280;64924;42.140;24.762;2023-05-09T07:37:42;100198.97;;;13.27;71.27
73870;BME280;64924;42.140;24.762;2023-05-09T07:40:08;100185.31;;;13.27;70.78
73870;BME280;64924;42.140;24.762;2023-05-09T07:42:33;100204.28;;;13.42;70.73
73870;BME280;64924;42.140;24.762;2023-05-09T07:44:59;100154.72;;;13.10;70.11
73870;BME280;64924;42.140;24.762;2023-05-09T07:47:25;100199.66;;;13.35;70.87
73870;BME280;64924;42.140;24.762;2023-05-09T07:49:50;100198.19;;;13.39;70.77
73870;BME280;64924;42.140;24.762;2023-05-09T07:52:16;100209.59;;;13.50;69.68
73870;BME280;64924;42.140;24.762;2023-05-09T07:54:42;100207.94;;;13.55;70.24
73870;BME280;64924;42.140;24.762;2023-05-09T07:57:08;100189.59;;;13.43;70.13
73870;BME280;64924;42.140;24.762;2023-05-09T07:59:34;100216.19;;;13.62;69.27
73870;BME280;64924;42.140;24.762;2023-05-09T08:01:59;100201.84;;;13.53;69.60
73870;BME280;64924;42.140;24.762;2023-05-09T08:04:25;100212.50;;;13.48;69.59
73870;BME280;64924;42.140;24.762;2023-05-09T08:06:50;100221.88;;;13.32;70.38
73870;BME280;64924;42.140;24.762;2023-05-09T08:09:16;100216.69;;;13.44;70.25
73870;BME280;64924;42.140;24.762;2023-05-09T08:11:43;100200.50;;;13.43;69.94
73870;BME280;64924;42.140;24.762;2023-05-09T08:14:08;100199.84;;;13.34;70.52
73870;BME280;64924;42.140;24.762;2023-05-09T08:16:34;100168.09;;;13.26;69.85
73870;BME280;64924;42.140;24.762;2023-05-09T08:18:59;100208.41;;;13.65;69.43
73870;BME280;64924;42.140;24.762;2023-05-09T08:21:25;100203.41;;;13.69;69.77
73870;BME280;64924;42.140;24.762;2023-05-09T08:23:50;100211.34;;;13.64;69.70
73870;BME280;64924;42.140;24.762;2023-05-09T08:26:17;100211.00;;;13.74;69.20
73870;BME280;64924;42.140;24.762;2023-05-09T08:28:42;100179.41;;;13.58;69.50
73870;BME280;64924;42.140;24.762;2023-05-09T08:31:08;100201.06;;;13.66;69.25
73870;BME280;64924;42.140;24.762;2023-05-09T08:33:33;100208.91;;;13.82;69.05
73870;BME280;64924;42.140;24.762;2023-05-09T08:35:58;100202.81;;;13.80;68.85
73870;BME280;64924;42.140;24.762;2023-05-09T08:38:24;100174.00;;;13.71;68.72
73870;BME280;64924;42.140;24.762;2023-05-09T08:40:50;100208.47;;;13.79;68.55
73870;BME280;64924;42.140;24.762;2023-05-09T08:43:16;100213.72;;;13.74;68.55
73870;BME280;64924;42.140;24.762;2023-05-09T08:45:53;100192.03;;;13.65;69.03
73870;BME280;64924;42.140;24.762;2023-05-09T08:48:20;100181.09;;;13.59;68.85
73870;BME280;64924;42.140;24.762;2023-05-09T08:50:47;100211.78;;;13.67;69.19
73870;BME280;64924;42.140;24.762;2023-05-09T08:53:13;100214.47;;;13.61;68.89
73870;BME280;64924;42.140;24.762;2023-05-09T08:55:40;100163.78;;;13.45;69.17
73870;BME280;64924;42.140;24.762;2023-05-09T08:58:06;100186.53;;;13.59;68.46
73870;BME280;64924;42.140;24.762;2023-05-09T09:00:32;100199.34;;;13.58;68.82
73870;BME280;64924;42.140;24.762;2023-05-09T09:03:00;100215.38;;;13.68;68.41
73870;BME280;64924;42.140;24.762;2023-05-09T09:05:29;100218.09;;;13.75;68.38
73870;BME280;64924;42.140;24.762;2023-05-09T09:07:56;100175.78;;;13.51;68.48
73870;BME280;64924;42.140;24.762;2023-05-09T09:10:22;100200.88;;;13.74;68.92
73870;BME280;64924;42.140;24.762;2023-05-09T09:12:53;100219.59;;;13.70;68.58
73870;BME280;64924;42.140;24.762;2023-05-09T09:15:19;100205.31;;;13.41;68.18
73870;BME280;64924;42.140;24.762;2023-05-09T09:17:47;100216.72;;;13.51;68.37
73870;BME280;64924;42.140;24.762;2023-05-09T09:20:16;100203.88;;;13.45;69.21
73870;BME280;64924;42.140;24.762;2023-05-09T09:22:42;100209.81;;;13.55;68.77
73870;BME280;64924;42.140;24.762;2023-05-09T09:25:12;100205.28;;;13.75;68.24
73870;BME280;64924;42.140;24.762;2023-05-09T09:27:37;100216.84;;;13.77;68.05
73870;BME280;64924;42.140;24.762;2023-05-09T09:30:10;100213.13;;;13.85;66.95
73870;BME280;64924;42.140;24.762;2023-05-09T09:32:37;100199.84;;;13.75;67.90
73870;BME280;64924;42.140;24.762;2023-05-09T09:35:09;100203.06;;;13.92;67.32
73870;BME280;64924;42.140;24.762;2023-05-09T09:37:39;100202.47;;;13.96;67.05
73870;BME280;64924;42.140;24.762;2023-05-09T09:40:07;100209.38;;;13.92;66.31
73870;BME280;64924;42.140;24.762;2023-05-09T09:42:44;100176.66;;;14.05;67.16
73870;BME280;64924;42.140;24.762;2023-05-09T09:45:12;100202.13;;;14.26;65.64
73870;BME280;64924;42.140;24.762;2023-05-09T09:47:39;100197.09;;;14.36;65.38
73870;BME280;64924;42.140;24.762;2023-05-09T09:50:31;100189.19;;;14.48;65.17
73870;BME280;64924;42.140;24.762;2023-05-09T09:52:57;100189.78;;;14.43;64.90
73870;BME280;64924;42.140;24.762;2023-05-09T09:55:24;100209.78;;;14.63;64.60
73870;BME280;64924;42.140;24.762;2023-05-09T09:57:50;100197.16;;;14.62;64.46
73870;BME280;64924;42.140;24.762;2023-05-09T10:00:19;100191.91;;;14.61;64.74
73870;BME280;64924;42.140;24.762;2023-05-09T10:02:58;100178.41;;;14.39;65.00
73870;BME280;64924;42.140;24.762;2023-05-09T10:07:56;100183.63;;;14.28;65.78
73870;BME280;64924;42.140;24.762;2023-05-09T10:10:34;100148.53;;;14.31;64.70
73870;BME280;64924;42.140;24.762;2023-05-09T10:13:02;100188.53;;;14.52;64.77
73870;BME280;64924;42.140;24.762;2023-05-09T10:15:30;100190.88;;;14.68;64.27
73870;BME280;64924;42.140;24.762;2023-05-09T10:17:57;100199.09;;;14.82;62.40
73870;BME280;64924;42.140;24.762;2023-05-09T10:20:23;100201.56;;;14.50;63.48
73870;BME280;64924;42.140;24.762;2023-05-09T10:23:02;100183.16;;;14.18;63.52
73870;BME280;64924;42.140;24.762;2023-05-09T10:25:39;100196.00;;;14.17;64.16
73870;BME280;64924;42.140;24.762;2023-05-09T10:28:14;100185.28;;;14.22;64.73
73870;BME280;64924;42.140;24.762;2023-05-09T10:30:55;100196.06;;;14.37;64.08
73870;BME280;64924;42.140;24.762;2023-05-09T10:33:28;100184.44;;;14.22;64.11
73870;BME280;64924;42.140;24.762;2023-05-09T10:35:57;100194.78;;;14.33;64.09
73870;BME280;64924;42.140;24.762;2023-05-09T10:38:24;100194.38;;;14.36;63.92
73870;BME280;64924;42.140;24.762;2023-05-09T10:40:49;100202.97;;;14.33;63.62
73870;BME280;64924;42.140;24.762;2023-05-09T10:43:17;100200.31;;;14.46;63.83
73870;BME280;64924;42.140;24.762;2023-05-09T10:45:43;100178.34;;;14.20;62.99
73870;BME280;64924;42.140;24.762;2023-05-09T10:48:10;100200.50;;;14.51;63.20
73870;BME280;64924;42.140;24.762;2023-05-09T10:50:36;100205.97;;;14.51;63.80
73870;BME280;64924;42.140;24.762;2023-05-09T10:55:55;100212.72;;;14.42;63.99
73870;BME280;64924;42.140;24.762;2023-05-09T10:58:33;100204.50;;;14.55;64.47
73870;BME280;64924;42.140;24.762;2023-05-09T11:01:02;100204.06;;;14.38;64.72
73870;BME280;64924;42.140;24.762;2023-05-09T11:03:51;100177.56;;;14.39;64.46
73870;BME280;64924;42.140;24.762;2023-05-09T11:06:50;100197.28;;;14.28;64.97
73870;BME280;64924;42.140;24.762;2023-05-09T11:12:13;100148.94;;;14.28;64.42
73870;BME280;64924;42.140;24.762;2023-05-09T11:14:43;100195.03;;;14.51;64.48
73870;BME280;64924;42.140;24.762;2023-05-09T11:22:24;100183.72;;;14.48;63.70
73870;BME280;64924;42.140;24.762;2023-05-09T11:27:25;100190.22;;;14.93;62.69
73870;BME280;64924;42.140;24.762;2023-05-09T11:30:04;100180.97;;;14.94;61.17
73870;BME280;64924;42.140;24.762;2023-05-09T11:32:30;100191.94;;;14.81;61.35
73870;BME280;64924;42.140;24.762;2023-05-09T11:35:07;100151.09;;;14.59;61.99
73870;BME280;64924;42.140;24.762;2023-05-09T11:37:45;100186.63;;;14.86;61.38
73870;BME280;64924;42.140;24.762;2023-05-09T11:40:12;100182.66;;;15.01;60.98
73870;BME280;64924;42.140;24.762;2023-05-09T11:42:42;100161.59;;;15.09;60.85
73870;BME280;64924;42.140;24.762;2023-05-09T11:45:09;100183.44;;;15.28;60.43
73870;BME280;64924;42.140;24.762;2023-05-09T11:47:39;100182.81;;;15.26;59.60
73870;BME280;64924;42.140;24.762;2023-05-09T11:50:09;100179.19;;;15.46;59.78
73870;BME280;64924;42.140;24.762;2023-05-09T11:52:36;100169.31;;;15.31;60.49
73870;BME280;64924;42.140;24.762;2023-05-09T11:55:04;100178.78;;;15.35;60.29
73870;BME280;64924;42.140;24.762;2023-05-09T11:57:30;100179.00;;;15.27;60.79
73870;BME280;64924;42.140;24.762;2023-05-09T11:59:58;100160.91;;;15.26;59.59
73870;BME280;64924;42.140;24.762;2023-05-09T12:02:25;100174.44;;;15.15;59.82
73870;BME280;64924;42.140;24.762;2023-05-09T12:04:50;100183.06;;;15.18;60.07
73870;BME280;64924;42.140;24.762;2023-05-09T12:07:16;100142.88;;;14.92;60.31
73870;BME280;64924;42.140;24.762;2023-05-09T12:09:42;100187.69;;;15.04;60.11
73870;BME280;64924;42.140;24.762;2023-05-09T12:12:09;100193.16;;;14.91;60.41
73870;BME280;64924;42.140;24.762;2023-05-09T12:14:36;100137.00;;;14.69;60.57
73870;BME280;64924;42.140;24.762;2023-05-09T12:17:02;100187.94;;;14.83;61.24
73870;BME280;64924;42.140;24.762;2023-05-09T12:19:27;100170.69;;;14.76;61.65
73870;BME280;64924;42.140;24.762;2023-05-09T12:21:57;100176.34;;;14.88;60.67
73870;BME280;64924;42.140;24.762;2023-05-09T12:24:24;100173.19;;;14.78;61.08
73870;BME280;64924;42.140;24.762;2023-05-09T12:26:51;100158.25;;;14.74;61.32
73870;BME280;64924;42.140;24.762;2023-05-09T12:29:17;100134.69;;;14.66;60.13
73870;BME280;64924;42.140;24.762;2023-05-09T12:31:44;100120.38;;;14.84;59.88
73870;BME280;64924;42.140;24.762;2023-05-09T12:34:10;100150.00;;;15.07;59.87
73870;BME280;64924;42.140;24.762;2023-05-09T12:36:36;100155.28;;;15.15;59.77
73870;BME280;64924;42.140;24.762;2023-05-09T12:39:07;100157.38;;;15.19;59.73
73870;BME280;64924;42.140;24.762;2023-05-09T12:41:33;100143.06;;;15.04;59.83
73870;BME280;64924;42.140;24.762;2023-05-09T12:43:59;100153.19;;;14.97;60.02
73870;BME280;64924;42.140;24.762;2023-05-09T12:46:25;100141.59;;;14.88;60.77
73870;BME280;64924;42.140;24.762;2023-05-09T12:48:50;100151.06;;;14.92;60.72
73870;BME280;64924;42.140;24.762;2023-05-09T12:51:20;100145.59;;;14.86;60.69
73870;BME280;64924;42.140;24.762;2023-05-09T12:53:46;100136.59;;;14.79;60.84
73870;BME280;64924;42.140;24.762;2023-05-09T12:56:19;100134.66;;;14.99;60.55
73870;BME280;64924;42.140;24.762;2023-05-09T12:58:48;100137.59;;;15.04;60.06
73870;BME280;64924;42.140;24.762;2023-05-09T13:01:15;100115.69;;;15.04;59.11
73870;BME280;64924;42.140;24.762;2023-05-09T13:03:41;100124.06;;;15.22;59.36
73870;BME280;64924;42.140;24.762;2023-05-09T13:06:12;100089.59;;;15.08;58.54